Wiley Post Will Rogers Memorial Airport Barrow US
ICAO: PABR
IATA:
Category: Medium
Scheduled Services:

Elevation: 44 ft
TransAlt. 18000 ft.

Airport Communications:
ASOS:132.15
ANCHORAGE CNTR:135.3
CTAF:123.6
BARROW RDO:122.2

PABR Zoom In..

Runways:

(A) RW 07 length 7100 ft width 150 ft
ILS 110.50 / hdg 71

(B) RW 25 length 7100 ft width 150 ft
---- / hdg 251

Location; PABR
Day. 20 / Time. 01.53 Zulu
* Altimeter: 30.10
* Temperature: 04° c. 39.2°f.
* Wind from: 270° Speed 22 kn with Gusts up to 30 kn.
Dewpoint: 01° c.
Visibility: 10 Statute Miles.
Clouds: Overcast 1600 ft.

PABR 200153Z 27022G30KT 10SM OVC016 04/01 A3010 RMK AO2 PK WND 28030/0123 SLP193 T00440011


Wind From 270°
Speed 22 kn.

 
 
jpsmedia.com for Web Design worldairports.se 2018   terms of use